createdAt,value
2023-04-03T00:01:12.921Z,99.90
2023-04-03T00:03:43.292Z,99.90
2023-04-03T00:06:12.788Z,99.90
2023-04-03T00:08:42.200Z,99.90
2023-04-03T00:11:10.613Z,99.90
2023-04-03T00:13:39.304Z,99.90
2023-04-03T00:16:08.331Z,99.90
2023-04-03T00:18:38.137Z,99.90
2023-04-03T00:21:07.229Z,99.90
2023-04-03T00:23:35.940Z,99.90
2023-04-03T00:26:04.082Z,99.90
2023-04-03T00:28:32.088Z,99.90
2023-04-03T00:31:00.682Z,99.90
2023-04-03T00:33:28.616Z,99.90
2023-04-03T00:35:58.102Z,99.90
2023-04-03T00:38:25.986Z,99.90
2023-04-03T00:40:53.959Z,99.90
2023-04-03T00:43:24.270Z,99.90
2023-04-03T00:45:53.769Z,99.90
2023-04-03T00:48:24.767Z,99.90
2023-04-03T00:50:53.896Z,99.90
2023-04-03T00:53:27.817Z,99.90
2023-04-03T00:55:57.579Z,99.90
2023-04-03T00:58:35.480Z,99.90
2023-04-03T01:01:08.468Z,99.90
2023-04-03T01:03:36.817Z,99.90
2023-04-03T01:06:05.724Z,99.90
2023-04-03T01:08:35.173Z,99.90
2023-04-03T01:11:03.088Z,99.90
2023-04-03T01:13:32.853Z,99.90
2023-04-03T01:16:03.550Z,99.90
2023-04-03T01:18:33.077Z,99.90
2023-04-03T01:21:30.802Z,99.90
2023-04-03T01:24:13.725Z,99.90
2023-04-03T01:26:41.725Z,99.90
2023-04-03T01:29:09.601Z,99.90
2023-04-03T01:31:53.741Z,99.90
2023-04-03T01:34:22.057Z,99.90
2023-04-03T01:36:49.964Z,99.90
2023-04-03T01:39:17.963Z,99.90
2023-04-03T01:41:46.642Z,99.90
2023-04-03T01:44:14.666Z,99.90
2023-04-03T01:46:43.368Z,99.90
2023-04-03T01:49:12.647Z,99.90
2023-04-03T01:51:40.495Z,99.90
2023-04-03T01:54:08.491Z,99.90
2023-04-03T01:56:36.773Z,99.90
2023-04-03T01:59:04.776Z,99.90
2023-04-03T02:01:32.697Z,99.90
2023-04-03T02:04:00.631Z,99.90
2023-04-03T02:06:29.944Z,99.90
2023-04-03T02:08:57.890Z,99.90
2023-04-03T02:11:25.813Z,99.90
2023-04-03T02:13:53.715Z,99.90
2023-04-03T02:16:21.728Z,99.90
2023-04-03T02:18:49.712Z,99.90
2023-04-03T02:21:17.663Z,99.90
2023-04-03T02:23:47.087Z,99.90
2023-04-03T02:26:17.929Z,99.90
2023-04-03T02:28:48.107Z,99.90
2023-04-03T02:31:16.232Z,99.90
2023-04-03T02:33:44.200Z,99.90
2023-04-03T02:36:12.165Z,99.90
2023-04-03T02:38:40.111Z,99.90
2023-04-03T02:41:14.270Z,99.90
2023-04-03T02:43:42.261Z,99.90
2023-04-03T02:46:10.531Z,99.90
2023-04-03T02:48:38.890Z,99.90
2023-04-03T02:51:07.057Z,99.90
2023-04-03T02:53:34.972Z,99.90
2023-04-03T02:56:02.992Z,99.90
2023-04-03T02:58:32.276Z,99.90
2023-04-03T03:01:00.206Z,99.90
2023-04-03T03:03:28.087Z,99.90
2023-04-03T03:06:04.026Z,99.90
2023-04-03T03:08:31.900Z,99.90
2023-04-03T03:11:00.320Z,99.90
2023-04-03T03:13:29.368Z,99.90
2023-04-03T03:15:59.131Z,99.90
2023-04-03T03:18:27.074Z,99.90
2023-04-03T03:20:55.481Z,99.90
2023-04-03T03:23:25.404Z,99.90
2023-04-03T03:25:57.189Z,99.90
2023-04-03T03:28:25.270Z,99.90
2023-04-03T03:30:53.450Z,99.90
2023-04-03T03:33:22.617Z,99.90
2023-04-03T03:35:50.894Z,99.90
2023-04-03T03:38:18.843Z,99.90
2023-04-03T03:40:46.909Z,99.90
2023-04-03T03:43:14.785Z,99.90
2023-04-03T03:45:42.747Z,99.90
2023-04-03T03:48:11.359Z,99.90
2023-04-03T03:50:40.914Z,99.90
2023-04-03T03:53:08.912Z,99.90
2023-04-03T03:55:37.064Z,99.90
2023-04-03T03:58:06.605Z,99.90
2023-04-03T04:00:34.536Z,99.90
2023-04-03T04:03:02.585Z,99.90
2023-04-03T04:05:30.538Z,99.90
2023-04-03T04:08:00.139Z,99.90
2023-04-03T04:10:28.150Z,99.90
2023-04-03T04:12:58.447Z,99.90
2023-04-03T04:15:26.798Z,99.90
2023-04-03T04:17:54.949Z,99.90
2023-04-03T04:20:23.317Z,99.90
2023-04-03T04:22:51.306Z,99.90
2023-04-03T04:25:20.761Z,99.90
2023-04-03T04:27:48.885Z,99.90
2023-04-03T04:30:16.889Z,99.90
2023-04-03T04:32:44.895Z,99.90
2023-04-03T04:35:15.358Z,99.90
2023-04-03T04:37:44.668Z,99.90
2023-04-03T04:40:13.291Z,99.90
2023-04-03T04:42:42.552Z,99.90
2023-04-03T04:45:11.123Z,99.90
2023-04-03T04:47:39.204Z,99.90
2023-04-03T04:50:08.162Z,99.90
2023-04-03T04:52:36.038Z,99.90
2023-04-03T04:55:04.139Z,99.90
2023-04-03T04:57:32.245Z,99.90
2023-04-03T05:00:01.735Z,99.90
2023-04-03T05:02:29.714Z,99.90
2023-04-03T05:04:57.644Z,99.90
2023-04-03T05:07:26.012Z,99.90
2023-04-03T05:09:53.880Z,99.90
2023-04-03T05:12:22.144Z,99.90
2023-04-03T05:14:50.034Z,99.90
2023-04-03T05:17:19.291Z,99.90
2023-04-03T05:19:47.247Z,99.90
2023-04-03T05:22:16.132Z,99.90
2023-04-03T05:24:44.319Z,99.90
2023-04-03T05:27:12.221Z,99.90
2023-04-03T05:29:40.147Z,99.90
2023-04-03T05:32:08.075Z,99.90
2023-04-03T05:34:37.341Z,99.90
2023-04-03T05:37:06.043Z,99.90
2023-04-03T05:39:34.772Z,99.90
2023-04-03T05:42:02.681Z,99.90
2023-04-03T05:44:30.593Z,99.90
2023-04-03T05:46:58.452Z,99.90
2023-04-03T05:49:26.428Z,99.90
2023-04-03T05:51:57.179Z,99.90
2023-04-03T05:54:26.776Z,99.90
2023-04-03T05:56:55.238Z,99.90
2023-04-03T05:59:23.614Z,99.90
2023-04-03T06:01:51.842Z,99.90
2023-04-03T06:04:20.236Z,99.90
2023-04-03T06:06:50.423Z,99.90
2023-04-03T06:09:21.189Z,99.90
2023-04-03T06:11:49.274Z,99.90
2023-04-03T06:14:17.198Z,99.90
2023-04-03T06:16:45.588Z,99.90
2023-04-03T06:19:14.205Z,99.90
2023-04-03T06:21:42.156Z,99.90
2023-04-03T06:24:14.463Z,99.90
2023-04-03T06:26:43.868Z,99.90
2023-04-03T06:29:12.196Z,99.90
2023-04-03T06:31:40.738Z,99.90
2023-04-03T06:34:09.789Z,99.90
2023-04-03T06:36:37.981Z,99.90
2023-04-03T06:39:06.038Z,99.90
2023-04-03T06:41:35.324Z,99.90
2023-04-03T06:44:05.536Z,99.90
2023-04-03T06:46:33.681Z,99.90
2023-04-03T06:49:01.597Z,99.90
2023-04-03T06:51:31.060Z,99.90
2023-04-03T06:54:00.515Z,99.90
2023-04-03T06:56:29.399Z,99.90
2023-04-03T06:58:58.606Z,99.90
2023-04-03T07:01:29.832Z,99.90
2023-04-03T07:03:58.307Z,99.90
2023-04-03T07:06:27.733Z,99.90
2023-04-03T07:08:56.469Z,99.90
2023-04-03T07:11:24.679Z,99.90
2023-04-03T07:13:53.063Z,99.90
2023-04-03T07:16:21.207Z,99.90
2023-04-03T07:18:50.488Z,99.90
2023-04-03T07:21:18.466Z,99.90
2023-04-03T07:23:46.640Z,99.90
2023-04-03T07:26:14.672Z,99.90
2023-04-03T07:28:42.939Z,99.90
2023-04-03T07:31:14.391Z,99.90
2023-04-03T07:33:45.113Z,99.90
2023-04-03T07:36:19.643Z,99.90
2023-04-03T07:38:47.661Z,99.90
2023-04-03T07:41:18.476Z,99.90
2023-04-03T07:43:47.475Z,99.90
2023-04-03T07:46:15.465Z,99.90
2023-04-03T07:48:43.397Z,99.90
2023-04-03T07:51:12.196Z,99.90
2023-04-03T07:53:41.508Z,99.90
2023-04-03T07:56:10.411Z,99.90
2023-04-03T07:58:39.161Z,99.90
2023-04-03T08:01:07.213Z,99.90
2023-04-03T08:03:35.280Z,99.90
2023-04-03T08:06:09.124Z,99.90
2023-04-03T08:08:41.336Z,99.90
2023-04-03T08:11:09.436Z,99.90
2023-04-03T08:13:37.476Z,99.90
2023-04-03T08:16:13.849Z,99.90
2023-04-03T08:18:41.896Z,99.90
2023-04-03T08:21:11.633Z,99.90
2023-04-03T08:23:42.005Z,99.90
2023-04-03T08:26:11.663Z,99.90
2023-04-03T08:28:40.630Z,99.90
2023-04-03T08:31:11.965Z,99.90
2023-04-03T08:33:40.770Z,99.90
2023-04-03T08:36:17.491Z,99.90
2023-04-03T08:38:46.888Z,99.90
2023-04-03T08:41:21.918Z,99.90
2023-04-03T08:44:10.038Z,99.90
2023-04-03T08:46:48.902Z,99.90
2023-04-03T08:49:23.541Z,99.90
2023-04-03T08:51:52.804Z,99.90
2023-04-03T08:54:31.904Z,99.90
2023-04-03T08:57:04.085Z,99.90
2023-04-03T08:59:35.840Z,99.90
2023-04-03T09:02:17.194Z,99.90
2023-04-03T09:04:45.484Z,99.90
2023-04-03T09:07:23.543Z,99.90
2023-04-03T09:09:54.045Z,99.90
2023-04-03T09:12:27.667Z,99.90
2023-04-03T09:15:03.431Z,99.90
2023-04-03T09:17:43.004Z,99.90
2023-04-03T09:20:21.482Z,99.90
2023-04-03T09:22:52.982Z,99.90
2023-04-03T09:25:25.372Z,99.90
2023-04-03T09:27:53.974Z,99.90
2023-04-03T09:30:24.448Z,99.90
2023-04-03T09:32:54.027Z,99.90
2023-04-03T09:35:32.709Z,99.90
2023-04-03T09:38:19.085Z,99.90
2023-04-03T09:40:50.704Z,99.90
2023-04-03T09:43:37.014Z,99.90
2023-04-03T09:46:36.324Z,99.20
2023-04-03T09:49:09.359Z,93.60
2023-04-03T09:51:38.201Z,86.40
2023-04-03T09:54:28.760Z,71.60
2023-04-03T09:57:01.979Z,56.10
2023-04-03T09:59:30.004Z,45.30
2023-04-03T10:02:04.018Z,35.00
2023-04-03T10:04:40.919Z,29.50
2023-04-03T10:07:31.649Z,27.00
2023-04-03T10:10:00.966Z,23.60
2023-04-03T10:12:30.858Z,20.20
2023-04-03T10:14:59.930Z,18.50
2023-04-03T10:17:39.205Z,16.80
2023-04-03T10:20:26.026Z,15.70
2023-04-03T10:23:04.058Z,14.20
2023-04-03T10:25:39.256Z,11.90
2023-04-03T10:28:14.746Z,12.10
2023-04-03T10:30:52.389Z,11.40
2023-04-03T10:33:38.794Z,10.40
2023-04-03T10:36:18.860Z,9.80
2023-04-03T10:38:57.711Z,9.70
2023-04-03T10:41:34.803Z,9.70
2023-04-03T10:44:16.714Z,9.10
2023-04-03T10:46:47.665Z,8.80
2023-04-03T10:49:28.176Z,8.50
2023-04-03T10:52:06.055Z,8.60
2023-04-03T10:54:38.674Z,7.40
2023-04-03T10:57:13.149Z,7.30
2023-04-03T10:59:47.908Z,7.20
2023-04-03T11:02:25.248Z,7.60
2023-04-03T11:04:58.255Z,7.60
2023-04-03T11:07:28.608Z,6.70
2023-04-03T11:10:01.161Z,6.90
2023-04-03T11:12:37.982Z,6.90
2023-04-03T11:15:13.988Z,6.60
2023-04-03T11:17:47.595Z,6.30
2023-04-03T11:20:20.504Z,6.10
2023-04-03T11:22:53.504Z,5.40
2023-04-03T11:25:24.622Z,4.90
2023-04-03T11:27:57.735Z,5.00
2023-04-03T11:30:32.376Z,4.80
2023-04-03T11:33:36.949Z,5.10
2023-04-03T11:36:19.076Z,5.40
2023-04-03T11:38:56.469Z,5.40
2023-04-03T11:41:30.085Z,6.20
2023-04-03T11:44:00.996Z,7.20
2023-04-03T11:46:55.638Z,8.40
2023-04-03T11:50:00.517Z,10.20
2023-04-03T11:53:01.347Z,11.80
2023-04-03T11:55:56.762Z,13.10
2023-04-03T11:58:27.274Z,14.40
2023-04-03T12:01:04.529Z,14.90
2023-04-03T12:04:14.926Z,15.70
2023-04-03T12:07:15.921Z,16.70
2023-04-03T12:10:30.797Z,17.30
2023-04-03T12:13:03.531Z,17.80
2023-04-03T12:15:54.872Z,17.80
2023-04-03T12:18:46.823Z,18.20
2023-04-03T12:21:19.355Z,18.60
2023-04-03T12:24:05.752Z,18.60
2023-04-03T12:26:48.233Z,18.30
2023-04-03T12:29:22.451Z,18.70
2023-04-03T12:32:03.834Z,19.30
2023-04-03T12:34:47.412Z,18.70
2023-04-03T12:37:27.704Z,18.90
2023-04-03T12:40:04.056Z,19.10
2023-04-03T12:42:55.415Z,19.40
2023-04-03T12:45:25.529Z,19.50
2023-04-03T12:47:56.083Z,19.60
2023-04-03T12:50:30.886Z,19.80
2023-04-03T12:53:03.870Z,20.00
2023-04-03T12:55:32.015Z,20.00
2023-04-03T12:58:14.907Z,20.10
2023-04-03T13:00:44.844Z,19.80
2023-04-03T13:03:25.529Z,19.90
2023-04-03T13:05:56.369Z,20.30
2023-04-03T13:08:24.334Z,20.40
2023-04-03T13:10:57.147Z,20.30
2023-04-03T13:13:27.251Z,20.40
2023-04-03T13:15:56.602Z,20.20
2023-04-03T13:18:26.711Z,20.10
2023-04-03T13:20:59.273Z,20.10
2023-04-03T13:23:27.345Z,20.20
2023-04-03T13:25:56.120Z,20.10
2023-04-03T13:28:26.016Z,20.20
2023-04-03T13:31:02.822Z,19.90
2023-04-03T13:33:33.778Z,19.80
2023-04-03T13:36:06.842Z,19.70
2023-04-03T13:38:37.435Z,19.70
2023-04-03T13:41:23.136Z,19.80
2023-04-03T13:43:53.619Z,19.80
2023-04-03T13:46:28.870Z,19.70
2023-04-03T13:48:58.259Z,19.80
2023-04-03T13:51:29.057Z,19.90
2023-04-03T13:53:59.026Z,20.00
2023-04-03T13:56:31.711Z,20.20
2023-04-03T13:59:04.621Z,20.00
2023-04-03T14:01:42.306Z,19.80
2023-04-03T14:04:18.055Z,19.60
2023-04-03T14:06:47.920Z,19.50
2023-04-03T14:09:17.890Z,19.60
2023-04-03T14:11:47.203Z,19.50
2023-04-03T14:14:17.618Z,19.70
2023-04-03T14:16:49.330Z,19.70
2023-04-03T14:19:22.819Z,19.70
2023-04-03T14:21:53.633Z,19.40
2023-04-03T14:24:22.645Z,19.40
2023-04-03T14:26:51.755Z,19.50
2023-04-03T14:29:21.384Z,19.50
2023-04-03T14:31:55.407Z,19.00
2023-04-03T14:34:28.656Z,19.30
2023-04-03T14:36:58.003Z,19.40
2023-04-03T14:39:25.911Z,19.60
2023-04-03T14:41:53.821Z,19.70
2023-04-03T14:44:21.913Z,19.70
2023-04-03T14:46:56.851Z,19.60
2023-04-03T14:49:28.917Z,19.30
2023-04-03T14:51:59.111Z,19.20
2023-04-03T14:54:28.801Z,19.40
2023-04-03T14:56:59.687Z,19.70
2023-04-03T14:59:28.565Z,20.10
2023-04-03T15:01:56.596Z,20.30
2023-04-03T15:04:24.638Z,20.50
2023-04-03T15:06:53.962Z,20.30
2023-04-03T15:09:26.501Z,20.40
2023-04-03T15:11:56.397Z,20.60
2023-04-03T15:14:36.288Z,20.60
2023-04-03T15:17:06.495Z,20.80
2023-04-03T15:19:39.661Z,20.70
2023-04-03T15:22:08.367Z,20.80
2023-04-03T15:24:37.625Z,20.70
2023-04-03T15:27:05.634Z,20.90
2023-04-03T15:29:33.502Z,20.80
2023-04-03T15:32:01.565Z,20.60
2023-04-03T15:34:30.213Z,20.20
2023-04-03T15:36:58.136Z,20.10
2023-04-03T15:39:27.294Z,20.10
2023-04-03T15:42:00.595Z,20.20
2023-04-03T15:44:28.536Z,20.50
2023-04-03T15:46:56.495Z,20.10
2023-04-03T15:49:24.696Z,20.10
2023-04-03T15:51:52.610Z,20.10
2023-04-03T15:54:20.830Z,20.20
2023-04-03T15:56:50.264Z,20.30
2023-04-03T15:59:19.582Z,20.70
2023-04-03T16:01:48.007Z,20.60
2023-04-03T16:04:17.962Z,20.80
2023-04-03T16:06:46.765Z,20.90
2023-04-03T16:09:14.641Z,21.40
2023-04-03T16:11:42.612Z,21.70
2023-04-03T16:14:10.826Z,21.90
2023-04-03T16:16:43.695Z,22.10
2023-04-03T16:19:12.224Z,22.30
2023-04-03T16:21:40.249Z,22.20
2023-04-03T16:24:08.781Z,22.30
2023-04-03T16:26:36.739Z,22.30
2023-04-03T16:29:04.698Z,22.40
2023-04-03T16:31:35.157Z,22.70
2023-04-03T16:34:04.426Z,22.80
2023-04-03T16:36:33.429Z,23.10
2023-04-03T16:39:01.434Z,23.30
2023-04-03T16:41:29.357Z,23.40
2023-04-03T16:43:57.215Z,23.50
2023-04-03T16:46:25.190Z,23.80
2023-04-03T16:48:53.097Z,23.80
2023-04-03T16:51:22.336Z,24.10
2023-04-03T16:53:50.217Z,24.20
2023-04-03T16:56:18.288Z,24.40
2023-04-03T16:58:46.403Z,24.40
2023-04-03T17:01:16.357Z,24.40
2023-04-03T17:03:44.321Z,24.40
2023-04-03T17:06:16.847Z,24.20
2023-04-03T17:08:47.837Z,24.40
2023-04-03T17:11:16.495Z,24.40
2023-04-03T17:13:44.462Z,24.50
2023-04-03T17:16:16.165Z,24.50
2023-04-03T17:18:44.754Z,24.80
2023-04-03T17:21:16.219Z,25.00
2023-04-03T17:23:50.078Z,25.10
2023-04-03T17:26:18.107Z,25.30
2023-04-03T17:28:46.857Z,25.60
2023-04-03T17:31:14.996Z,25.80
2023-04-03T17:33:42.924Z,26.00
2023-04-03T17:36:11.106Z,26.20
2023-04-03T17:38:39.076Z,26.40
2023-04-03T17:41:10.626Z,26.50
2023-04-03T17:43:38.539Z,26.80
2023-04-03T17:46:09.115Z,26.90
2023-04-03T17:48:39.016Z,27.10
2023-04-03T17:51:07.530Z,27.30
2023-04-03T17:53:35.538Z,27.40
2023-04-03T17:56:09.389Z,27.70
2023-04-03T17:58:37.405Z,27.80
2023-04-03T18:01:14.159Z,27.90
2023-04-03T18:03:42.210Z,28.00
2023-04-03T18:06:13.501Z,28.20
2023-04-03T18:08:44.852Z,28.90
2023-04-03T18:11:15.427Z,28.50
2023-04-03T18:13:44.719Z,28.70
2023-04-03T18:16:14.005Z,28.70
2023-04-03T18:18:42.661Z,28.70
2023-04-03T18:21:13.104Z,28.90
2023-04-03T18:23:45.794Z,29.00
2023-04-03T18:26:18.174Z,29.20
2023-04-03T18:28:53.707Z,29.30
2023-04-03T18:31:22.773Z,29.90
2023-04-03T18:33:53.904Z,29.60
2023-04-03T18:36:22.035Z,29.80
2023-04-03T18:38:49.970Z,29.90
2023-04-03T18:41:22.494Z,30.40
2023-04-03T18:43:50.693Z,30.10
2023-04-03T18:46:19.801Z,30.20
2023-04-03T18:48:47.753Z,30.40
2023-04-03T18:51:16.018Z,30.60
2023-04-03T18:53:44.134Z,30.80
2023-04-03T18:56:12.017Z,31.00
2023-04-03T18:58:41.240Z,31.20
2023-04-03T19:01:09.463Z,31.30
2023-04-03T19:03:38.570Z,31.50
2023-04-03T19:06:06.681Z,31.60
2023-04-03T19:08:34.902Z,31.80
2023-04-03T19:11:02.924Z,32.00
2023-04-03T19:13:32.472Z,32.10
2023-04-03T19:16:01.750Z,32.20
2023-04-03T19:18:30.400Z,32.40
2023-04-03T19:20:59.929Z,32.50
2023-04-03T19:23:28.280Z,32.70
2023-04-03T19:26:00.827Z,32.80
2023-04-03T19:28:29.374Z,33.10
2023-04-03T19:30:57.957Z,33.10
2023-04-03T19:33:28.345Z,33.30
2023-04-03T19:35:56.498Z,33.40
2023-04-03T19:38:24.376Z,33.50
2023-04-03T19:40:52.311Z,33.60
2023-04-03T19:43:20.228Z,33.60
2023-04-03T19:45:48.854Z,33.70
2023-04-03T19:48:16.972Z,34.40
2023-04-03T19:50:46.364Z,33.80
2023-04-03T19:53:19.237Z,34.00
2023-04-03T19:55:47.302Z,33.90
2023-04-03T19:58:15.383Z,34.10
2023-04-03T20:00:43.422Z,34.20
2023-04-03T20:03:11.567Z,34.20
2023-04-03T20:05:39.495Z,34.30
2023-04-03T20:08:08.835Z,34.30
2023-04-03T20:10:40.237Z,34.50
2023-04-03T20:13:10.590Z,34.60
2023-04-03T20:15:41.150Z,34.70
2023-04-03T20:18:09.803Z,34.80
2023-04-03T20:20:41.798Z,35.00
2023-04-03T20:23:12.857Z,35.10
2023-04-03T20:28:15.698Z,35.40
2023-04-03T20:30:46.114Z,35.50
2023-04-03T20:33:14.405Z,35.80
2023-04-03T20:35:43.125Z,35.80
2023-04-03T20:38:12.446Z,35.90
2023-04-03T20:40:40.879Z,36.10
2023-04-03T20:43:09.408Z,36.10
2023-04-03T20:45:37.391Z,36.20
2023-04-03T20:48:05.888Z,36.30
2023-04-03T20:50:34.880Z,36.50
2023-04-03T20:53:03.274Z,37.50
2023-04-03T20:55:32.743Z,37.40
2023-04-03T20:58:02.121Z,37.30
2023-04-03T21:00:32.154Z,37.20
2023-04-03T21:03:01.374Z,37.30
2023-04-03T21:05:30.697Z,37.30
2023-04-03T21:08:36.178Z,37.40
2023-04-03T21:11:41.332Z,37.60
2023-04-03T21:14:48.459Z,37.70
2023-04-03T21:17:16.334Z,37.80
2023-04-03T21:19:46.854Z,37.90
2023-04-03T21:22:16.041Z,38.10
2023-04-03T21:24:45.166Z,38.20
2023-04-03T21:27:13.150Z,38.30
2023-04-03T21:29:41.542Z,38.50
2023-04-03T21:32:09.465Z,38.70
2023-04-03T21:34:37.487Z,38.80
2023-04-03T21:37:08.627Z,39.00
2023-04-03T21:39:36.644Z,39.10
2023-04-03T21:42:04.763Z,39.30
2023-04-03T21:44:32.688Z,39.40
2023-04-03T21:47:00.969Z,39.50
2023-04-03T21:49:29.682Z,39.70
2023-04-03T21:51:57.641Z,39.90
2023-04-03T21:54:27.663Z,40.00
2023-04-03T21:56:55.605Z,40.20
2023-04-03T21:59:23.601Z,40.40
2023-04-03T22:01:51.732Z,40.50
2023-04-03T22:04:19.709Z,40.60
2023-04-03T22:06:47.574Z,40.80
2023-04-03T22:09:16.081Z,41.00
2023-04-03T22:11:45.898Z,41.20
2023-04-03T22:14:14.031Z,41.40
2023-04-03T22:16:41.956Z,41.70
2023-04-03T22:19:09.936Z,41.90
2023-04-03T22:21:37.888Z,42.10
2023-04-03T22:24:06.320Z,42.40
2023-04-03T22:26:34.466Z,42.60
2023-04-03T22:29:06.246Z,42.80
2023-04-03T22:31:34.646Z,43.10
2023-04-03T22:34:04.165Z,43.30
2023-04-03T22:36:32.166Z,43.50
2023-04-03T22:39:00.256Z,43.70
2023-04-03T22:41:28.147Z,43.90
2023-04-03T22:43:57.809Z,44.10
2023-04-03T22:46:28.155Z,44.40
2023-04-03T22:48:56.246Z,44.70
2023-04-03T22:51:24.119Z,45.00
2023-04-03T22:53:51.977Z,45.20
2023-04-03T22:56:19.897Z,45.60
2023-04-03T22:58:48.338Z,45.80
2023-04-03T23:01:17.301Z,46.10
2023-04-03T23:03:46.671Z,46.40
2023-04-03T23:06:15.733Z,46.70
2023-04-03T23:08:43.716Z,46.80
2023-04-03T23:11:11.695Z,47.10
2023-04-03T23:13:39.697Z,47.40
2023-04-03T23:16:08.138Z,47.60
2023-04-03T23:18:39.670Z,47.80
2023-04-03T23:21:09.401Z,48.10
2023-04-03T23:23:37.540Z,48.40
2023-04-03T23:26:06.063Z,48.80
2023-04-03T23:28:34.034Z,49.10
2023-04-03T23:31:03.234Z,49.50
2023-04-03T23:33:32.177Z,49.90
2023-04-03T23:36:01.249Z,50.10
2023-04-03T23:38:30.695Z,50.50
2023-04-03T23:40:58.538Z,50.80
2023-04-03T23:43:27.673Z,51.20
2023-04-03T23:45:55.632Z,51.50
2023-04-03T23:48:23.571Z,51.80
2023-04-03T23:50:51.894Z,52.10
2023-04-03T23:53:19.911Z,52.50
2023-04-03T23:55:49.154Z,52.80
2023-04-03T23:58:17.097Z,53.20
